Time;durP1;ratioP1;P1;durP2;ratioP2;P2;SDS_P1;SDS_P2;PMS_P1;PMS_P2;Temp;Humidity;BMP_temperature;BMP_pressure;BME280_temperature;BME280_humidity;BME280_pressure;Samples;Min_cycle;Max_cycle;Signal;HPM_P1;HPM_P2
2023/02/05 00:01:22;;;;;;;76.45;24.40;;;;;;;3.51;100.00;101361.47;5046319;28;20047;-59
2023/02/05 00:03:47;;;;;;;72.40;25.00;;;;;;;3.49;100.00;101356.28;5043783;28;20517;-60
2023/02/05 00:06:13;;;;;;;69.60;25.55;;;;;;;3.47;100.00;101360.94;5043977;28;20119;-60
2023/02/05 00:08:38;;;;;;;81.75;27.15;;;;;;;3.39;100.00;101358.13;5043583;28;20323;-60
2023/02/05 00:11:08;;;;;;;92.15;26.83;;;;;;;3.36;100.00;101346.00;5044283;28;20037;-60
2023/02/05 00:13:37;;;;;;;94.95;26.98;;;;;;;3.32;100.00;101346.44;5044775;28;20032;-60
2023/02/05 00:16:16;;;;;;;93.35;27.33;;;;;;;3.24;100.00;101345.38;5045898;28;20021;-58
2023/02/05 00:18:41;;;;;;;68.88;26.52;;;;;;;3.33;100.00;101342.81;5050065;28;20025;-59
2023/02/05 00:21:07;;;;;;;81.60;26.02;;;;;;;3.37;100.00;101341.53;5037326;28;20024;-61
2023/02/05 00:23:32;;;;;;;74.97;24.77;;;;;;;3.36;100.00;101346.00;5040015;28;20059;-59
2023/02/05 00:25:58;;;;;;;80.28;26.15;;;;;;;3.36;100.00;101337.22;5066186;28;20353;-58
2023/02/05 00:28:23;;;;;;;73.07;24.30;;;;;;;3.33;100.00;101332.22;5040092;28;20490;-59
2023/02/05 00:30:48;;;;;;;73.88;26.25;;;;;;;3.38;100.00;101332.63;5052143;28;20460;-59
2023/02/05 00:33:14;;;;;;;64.07;24.73;;;;;;;3.37;100.00;101325.63;5037251;28;20385;-59
2023/02/05 00:35:41;;;;;;;63.17;24.38;;;;;;;3.34;100.00;101317.97;5033569;28;20018;-59
2023/02/05 00:38:07;;;;;;;77.20;25.23;;;;;;;3.25;100.00;101309.09;5045404;28;20033;-59
2023/02/05 00:40:32;;;;;;;82.35;25.15;;;;;;;3.17;100.00;101308.94;5044451;28;20078;-59
2023/02/05 00:42:58;;;;;;;65.90;24.48;;;;;;;3.16;100.00;101297.53;5042658;28;20044;-59
2023/02/05 00:45:23;;;;;;;63.97;25.85;;;;;;;3.21;100.00;101297.91;5036950;28;20127;-59
2023/02/05 00:47:49;;;;;;;72.20;25.77;;;;;;;3.21;100.00;101295.28;5038508;28;20632;-59
2023/02/05 00:50:14;;;;;;;83.32;24.80;;;;;;;3.26;100.00;101289.53;5042650;28;20021;-59
2023/02/05 00:52:40;;;;;;;71.07;25.48;;;;;;;3.28;100.00;101277.00;5041088;28;20035;-59
2023/02/05 00:55:06;;;;;;;64.63;24.20;;;;;;;3.29;100.00;101285.78;5040816;28;20034;-59
2023/02/05 00:57:31;;;;;;;71.28;25.42;;;;;;;3.29;100.00;101293.72;5045005;28;20025;-59
2023/02/05 00:59:57;;;;;;;74.15;24.20;;;;;;;3.31;100.00;101297.06;5036228;28;20022;-59
2023/02/05 01:02:23;;;;;;;69.57;24.95;;;;;;;3.35;100.00;101287.84;5042982;28;20028;-59
2023/02/05 01:04:50;;;;;;;71.43;25.67;;;;;;;3.35;100.00;101290.50;5037118;28;20507;-59
2023/02/05 01:07:17;;;;;;;67.38;24.58;;;;;;;3.31;100.00;101286.47;5037728;28;20029;-59
2023/02/05 01:09:42;;;;;;;76.43;24.75;;;;;;;3.26;100.00;101288.72;5036878;28;20045;-59
2023/02/05 01:12:07;;;;;;;68.20;26.05;;;;;;;3.22;100.00;101274.91;5075772;28;20032;-59
2023/02/05 01:14:33;;;;;;;79.28;25.85;;;;;;;3.22;100.00;101269.59;5043050;28;20030;-59
2023/02/05 01:16:58;;;;;;;82.18;25.85;;;;;;;3.29;100.00;101272.50;5035059;28;20406;-59
2023/02/05 01:19:24;;;;;;;76.75;26.52;;;;;;;3.31;100.00;101271.38;5035296;28;20037;-59
2023/02/05 01:21:49;;;;;;;72.60;27.15;;;;;;;3.31;100.00;101265.25;5043877;28;20036;-59
2023/02/05 01:24:14;;;;;;;63.63;24.17;;;;;;;3.42;100.00;101252.66;5041675;28;20033;-59
2023/02/05 01:26:40;;;;;;;62.97;24.70;;;;;;;3.23;100.00;101242.13;5040079;28;20033;-59
2023/02/05 01:29:05;;;;;;;74.65;19.88;;;;;;;3.40;100.00;101245.84;5034974;28;20500;-59
2023/02/05 01:31:32;;;;;;;62.95;23.48;;;;;;;3.39;100.00;101239.69;5049250;28;20033;-59
2023/02/05 01:33:57;;;;;;;80.70;26.95;;;;;;;3.40;100.00;101238.72;5046234;28;20032;-59
2023/02/05 01:36:22;;;;;;;81.00;28.27;;;;;;;3.35;100.00;101250.75;5037173;28;20415;-59
2023/02/05 01:38:48;;;;;;;74.95;27.30;;;;;;;3.30;100.00;101247.69;5041126;28;20033;-59
2023/02/05 01:41:13;;;;;;;81.45;28.63;;;;;;;3.24;100.00;101254.41;5044999;28;20037;-59
2023/02/05 01:43:39;;;;;;;78.25;26.33;;;;;;;3.20;100.00;101242.44;5040445;28;20032;-59
2023/02/05 01:46:13;;;;;;;78.32;26.55;;;;;;;3.14;100.00;101245.66;5047647;28;20026;-59
2023/02/05 01:48:41;;;;;;;61.85;25.75;;;;;;;3.14;100.00;101249.13;5051329;28;20108;-59
2023/02/05 01:51:08;;;;;;;78.65;28.02;;;;;;;3.10;100.00;101242.47;5042658;28;20083;-59
2023/02/05 01:53:34;;;;;;;83.82;25.15;;;;;;;3.14;100.00;101238.53;5069631;28;20115;-59
2023/02/05 01:56:02;;;;;;;69.57;24.90;;;;;;;3.15;100.00;101234.91;5042646;28;20452;-60
2023/02/05 01:58:30;;;;;;;70.88;24.33;;;;;;;3.14;100.00;101227.94;5042474;28;20049;-59
2023/02/05 02:00:56;;;;;;;76.10;25.85;;;;;;;3.02;100.00;101218.47;5044426;28;20390;-59
2023/02/05 02:03:21;;;;;;;73.93;26.05;;;;;;;3.08;100.00;101225.88;5047013;28;20028;-59
2023/02/05 02:05:46;;;;;;;85.85;26.88;;;;;;;3.09;100.00;101232.81;5070448;28;20463;-59
2023/02/05 02:08:12;;;;;;;78.80;25.75;;;;;;;3.10;100.00;101231.88;5044724;28;20036;-59
2023/02/05 02:10:38;;;;;;;72.35;26.67;;;;;;;3.10;100.00;101229.22;5041357;28;20485;-59
2023/02/05 02:13:04;;;;;;;79.43;25.65;;;;;;;3.09;100.00;101219.56;5033068;28;20380;-59
2023/02/05 02:15:29;;;;;;;90.13;27.48;;;;;;;3.00;100.00;101216.00;5049765;28;20029;-59
2023/02/05 02:18:24;;;;;;;71.80;26.85;;;;;;;2.85;100.00;101200.72;5050981;28;20037;-59
2023/02/05 02:20:43;;;;;;;90.07;26.70;;;;;;;2.78;100.00;101190.69;5041431;28;20040;-59
2023/02/05 02:23:35;;;;;;;80.57;25.98;;;;;;;2.85;100.00;101185.66;5077334;28;20017;-59
2023/02/05 02:26:06;;;;;;;78.60;23.80;;;;;;;2.96;100.00;101182.00;5037296;28;20041;-59
2023/02/05 02:28:34;;;;;;;86.55;20.98;;;;;;;3.03;100.00;101178.59;5041055;28;20098;-59
2023/02/05 02:31:08;;;;;;;78.32;18.00;;;;;;;3.15;100.00;101187.22;5025180;28;20029;-59
2023/02/05 02:34:00;;;;;;;64.25;19.50;;;;;;;3.18;100.00;101176.31;5035039;28;20025;-59
2023/02/05 02:36:35;;;;;;;59.00;20.77;;;;;;;3.22;100.00;101177.69;5029217;28;20185;-58
2023/02/05 02:39:11;;;;;;;79.50;21.55;;;;;;;3.27;100.00;101179.06;5066937;28;20117;-59
2023/02/05 02:41:48;;;;;;;73.95;19.38;;;;;;;3.30;100.00;101173.50;5045789;28;20037;-59
2023/02/05 02:44:22;;;;;;;65.10;16.80;;;;;;;3.39;100.00;101169.94;5072652;28;20371;-59
2023/02/05 02:46:50;;;;;;;54.28;18.75;;;;;;;3.38;100.00;101162.97;5045515;28;20057;-59
2023/02/05 02:49:19;;;;;;;60.85;17.13;;;;;;;3.44;100.00;101162.38;5039186;28;20029;-60
2023/02/05 02:51:44;;;;;;;65.22;16.98;;;;;;;3.48;100.00;101161.09;5054981;28;20056;-60
2023/02/05 02:54:13;;;;;;;56.13;15.55;;;;;;;3.52;100.00;101162.47;5050588;28;20025;-61
2023/02/05 02:56:38;;;;;;;61.30;16.33;;;;;;;3.54;100.00;101170.25;5021307;28;20029;-59
2023/02/05 02:59:06;;;;;;;54.13;16.33;;;;;;;3.59;100.00;101163.53;5040255;28;20068;-60
2023/02/05 03:01:32;;;;;;;69.20;18.70;;;;;;;3.52;100.00;101178.38;5038967;28;20032;-59
2023/02/05 03:04:01;;;;;;;71.13;18.02;;;;;;;3.58;100.00;101172.47;5035703;28;20109;-59
2023/02/05 03:06:26;;;;;;;68.80;20.17;;;;;;;3.48;100.00;101171.69;5044342;28;20032;-60
2023/02/05 03:08:54;;;;;;;98.40;22.67;;;;;;;3.43;100.00;101171.31;5024967;28;20049;-59
2023/02/05 03:11:20;;;;;;;85.18;20.80;;;;;;;3.46;100.00;101179.78;5035672;28;20020;-60
2023/02/05 03:13:45;;;;;;;76.18;20.77;;;;;;;3.45;100.00;101195.88;5040901;28;20353;-59
2023/02/05 03:16:11;;;;;;;95.70;28.73;;;;;;;3.27;100.00;101193.16;5033527;28;20045;-59
2023/02/05 03:18:37;;;;;;;100.70;27.63;;;;;;;3.32;100.00;101192.69;5040086;28;20029;-59
2023/02/05 03:21:08;;;;;;;83.40;22.27;;;;;;;3.42;100.00;101190.84;5067095;28;20029;-59
2023/02/05 03:23:33;;;;;;;85.15;24.83;;;;;;;3.45;100.00;101193.22;5045675;28;20577;-59
2023/02/05 03:25:59;;;;;;;83.25;25.70;;;;;;;3.38;100.00;101194.78;5037486;28;20025;-60
2023/02/05 03:28:24;;;;;;;100.72;28.02;;;;;;;3.37;100.00;101195.75;5042860;28;20098;-59
2023/02/05 03:31:13;;;;;;;107.20;29.52;;;;;;;3.35;100.00;101193.25;5035817;28;20088;-60
2023/02/05 03:33:38;;;;;;;85.53;29.08;;;;;;;3.19;100.00;101182.44;5037832;28;20028;-59
2023/02/05 03:36:04;;;;;;;103.10;29.83;;;;;;;3.21;100.00;101181.31;5041706;28;20056;-59
2023/02/05 03:38:55;;;;;;;85.03;26.98;;;;;;;3.29;100.00;101188.53;5041890;28;20413;-59
2023/02/05 03:41:55;;;;;;;95.20;28.85;;;;;;;3.34;100.00;101180.13;5035959;28;20116;-59
2023/02/05 03:44:36;;;;;;;89.72;27.02;;;;;;;3.17;100.00;101182.63;5040249;28;20066;-59
2023/02/05 03:47:09;;;;;;;79.93;25.42;;;;;;;3.23;100.00;101175.88;5041008;28;20052;-59
2023/02/05 03:49:42;;;;;;;96.30;24.45;;;;;;;3.34;100.00;101174.84;5048264;28;20364;-59
2023/02/05 03:52:41;;;;;;;80.85;25.73;;;;;;;3.51;100.00;101184.66;5029375;28;20029;-59
2023/02/05 03:55:20;;;;;;;80.88;26.38;;;;;;;3.09;100.00;101179.00;5019176;28;20112;-59
2023/02/05 03:57:55;;;;;;;95.38;28.17;;;;;;;3.02;100.00;101163.72;5042668;28;20083;-60
2023/02/05 04:00:22;;;;;;;103.75;27.05;;;;;;;3.18;100.00;101164.88;5038135;28;20505;-59
2023/02/05 04:02:47;;;;;;;91.50;30.35;;;;;;;3.06;100.00;101156.28;5026059;28;20030;-59
2023/02/05 04:05:12;;;;;;;103.70;31.80;;;;;;;2.93;100.00;101139.91;5036057;28;20037;-59
2023/02/05 04:07:38;;;;;;;103.15;28.73;;;;;;;3.09;100.00;101144.56;5038216;28;20025;-59
2023/02/05 04:10:03;;;;;;;97.72;29.25;;;;;;;3.21;100.00;101144.22;5039002;28;20049;-60
2023/02/05 04:12:29;;;;;;;112.15;32.83;;;;;;;3.17;100.00;101134.91;5037009;28;20523;-59
2023/02/05 04:14:54;;;;;;;103.15;30.73;;;;;;;2.93;100.00;101134.59;5038360;28;20103;-59
2023/02/05 04:17:20;;;;;;;106.07;30.52;;;;;;;2.98;100.00;101133.19;5048209;28;20024;-59
2023/02/05 04:19:45;;;;;;;96.55;28.33;;;;;;;2.93;100.00;101134.59;5046031;28;20086;-59
2023/02/05 04:22:10;;;;;;;99.45;28.00;;;;;;;3.03;100.00;101136.22;5046228;28;20024;-59
2023/02/05 04:24:36;;;;;;;104.00;29.25;;;;;;;3.11;100.00;101143.44;5039025;28;20118;-59
2023/02/05 04:27:01;;;;;;;96.88;28.45;;;;;;;3.06;100.00;101145.69;5034353;28;20022;-59
2023/02/05 04:29:27;;;;;;;103.95;27.35;;;;;;;3.31;100.00;101156.59;5028120;28;20017;-59
2023/02/05 04:31:52;;;;;;;88.85;28.30;;;;;;;3.12;100.00;101166.31;5041328;28;20099;-59
2023/02/05 04:34:17;;;;;;;101.65;28.23;;;;;;;3.19;100.00;101171.84;5046147;28;20809;-59
2023/02/05 04:36:44;;;;;;;91.05;29.45;;;;;;;3.16;100.00;101172.16;5045652;28;20025;-59
2023/02/05 04:39:09;;;;;;;90.90;28.42;;;;;;;3.03;100.00;101167.19;5032162;28;20051;-59
2023/02/05 04:41:34;;;;;;;98.10;30.42;;;;;;;3.08;100.00;101164.09;5037162;28;20113;-59
2023/02/05 04:44:00;;;;;;;98.65;26.60;;;;;;;3.01;100.00;101175.28;5045364;28;20424;-60
2023/02/05 04:46:25;;;;;;;98.18;26.70;;;;;;;3.08;100.00;101175.53;5041262;28;20033;-59
2023/02/05 04:48:51;;;;;;;107.00;28.80;;;;;;;3.14;100.00;101180.22;5041446;28;20025;-59
2023/02/05 04:51:16;;;;;;;88.68;26.92;;;;;;;3.16;100.00;101180.09;5069582;28;20048;-59
2023/02/05 04:53:41;;;;;;;97.65;25.75;;;;;;;3.13;100.00;101178.56;5046388;28;20083;-59
2023/02/05 04:56:09;;;;;;;107.50;28.10;;;;;;;3.18;100.00;101186.91;5037947;28;20025;-59
2023/02/05 04:58:35;;;;;;;109.05;28.80;;;;;;;3.13;100.00;101183.88;5040942;28;20034;-59
2023/02/05 05:01:00;;;;;;;87.50;27.90;;;;;;;3.24;100.00;101191.66;5041560;28;20029;-60
2023/02/05 05:03:25;;;;;;;104.25;29.85;;;;;;;3.12;100.00;101198.13;5046136;28;20020;-59
2023/02/05 05:05:51;;;;;;;84.85;28.50;;;;;;;3.09;100.00;101192.25;5051671;28;20341;-59
2023/02/05 05:08:18;;;;;;;93.68;27.92;;;;;;;2.81;100.00;101185.09;5057879;28;20075;-60
2023/02/05 05:10:43;;;;;;;107.40;30.13;;;;;;;2.88;100.00;101184.53;5050434;28;20108;-60
2023/02/05 05:13:09;;;;;;;98.32;29.25;;;;;;;3.00;100.00;101193.97;5047209;28;20037;-59
2023/02/05 05:15:34;;;;;;;96.63;29.08;;;;;;;2.95;100.00;101194.41;5040294;28;20059;-59
2023/02/05 05:17:59;;;;;;;97.57;28.75;;;;;;;3.01;100.00;101196.47;5034841;28;20087;-59
2023/02/05 05:20:25;;;;;;;102.85;28.80;;;;;;;2.98;100.00;101202.06;5074814;28;20029;-61
2023/02/05 05:22:50;;;;;;;95.78;29.08;;;;;;;2.98;100.00;101201.22;5047283;28;20075;-59
2023/02/05 05:25:16;;;;;;;102.72;31.17;;;;;;;3.07;100.00;101204.81;5039590;28;20029;-59
2023/02/05 05:27:41;;;;;;;113.95;39.38;;;;;;;2.97;100.00;101205.69;5036583;28;20021;-59
2023/02/05 05:30:07;;;;;;;110.72;34.30;;;;;;;2.84;100.00;101196.38;5041751;28;20664;-59
2023/02/05 05:32:33;;;;;;;104.82;34.33;;;;;;;2.80;100.00;101194.03;5049102;28;20313;-59
2023/02/05 05:34:58;;;;;;;113.50;29.60;;;;;;;2.96;100.00;101192.59;5039045;28;20030;-59
2023/02/05 05:37:23;;;;;;;104.90;29.15;;;;;;;3.04;100.00;101190.03;5044061;28;20029;-59
2023/02/05 05:45:17;;;;;;;105.63;28.33;;;;;;;3.21;100.00;101168.06;5038866;28;20080;-59
2023/02/05 05:47:42;;;;;;;110.22;29.77;;;;;;;3.30;100.00;101176.13;5049066;28;20551;-59
2023/02/05 05:50:08;;;;;;;132.32;31.73;;;;;;;3.29;100.00;101166.50;5045308;28;20039;-59
2023/02/05 05:52:33;;;;;;;111.00;27.90;;;;;;;3.26;100.00;101164.16;5043354;28;20071;-59
2023/02/05 05:54:59;;;;;;;110.15;29.10;;;;;;;3.37;100.00;101163.94;5038985;28;20057;-59
2023/02/05 05:57:24;;;;;;;121.20;28.77;;;;;;;3.32;100.00;101147.66;5046901;28;20032;-59
2023/02/05 05:59:50;;;;;;;111.10;28.65;;;;;;;3.37;100.00;101158.63;5045380;28;20029;-59
2023/02/05 06:02:15;;;;;;;103.47;30.27;;;;;;;3.35;100.00;101152.69;5042718;28;20033;-59
2023/02/05 06:04:41;;;;;;;104.93;31.38;;;;;;;3.32;100.00;101152.94;5048224;28;20033;-59
2023/02/05 06:07:06;;;;;;;96.80;28.42;;;;;;;3.32;100.00;101151.16;5051969;28;20021;-59
2023/02/05 06:09:32;;;;;;;121.82;31.48;;;;;;;3.24;100.00;101153.69;5042602;28;20072;-58
2023/02/05 06:11:57;;;;;;;94.22;28.42;;;;;;;3.14;100.00;101148.44;5041512;28;20321;-59
2023/02/05 06:14:22;;;;;;;105.60;27.67;;;;;;;3.29;100.00;101147.94;5044727;28;20021;-59
2023/02/05 06:16:48;;;;;;;125.53;36.17;;;;;;;3.33;100.00;101157.28;5044697;28;20052;-59
2023/02/05 06:19:13;;;;;;;113.97;29.35;;;;;;;3.30;100.00;101169.00;5049487;28;20033;-59
2023/02/05 06:21:39;;;;;;;118.53;31.10;;;;;;;3.13;100.00;101181.22;5057189;28;20395;-59
2023/02/05 06:24:04;;;;;;;91.45;29.50;;;;;;;2.98;100.00;101186.16;5036619;28;20041;-59
2023/02/05 06:26:30;;;;;;;107.50;30.17;;;;;;;2.94;100.00;101184.78;5048262;28;20078;-60
2023/02/05 06:29:02;;;;;;;98.15;29.10;;;;;;;2.91;100.00;101185.06;5033796;28;20025;-59
2023/02/05 06:31:28;;;;;;;91.28;29.08;;;;;;;2.79;100.00;101176.44;5036146;28;20049;-59
2023/02/05 06:33:53;;;;;;;78.72;27.58;;;;;;;2.85;100.00;101175.06;5049771;28;20468;-59
2023/02/05 06:36:19;;;;;;;94.50;28.80;;;;;;;2.88;100.00;101184.53;5048830;28;20035;-59
2023/02/05 06:38:44;;;;;;;85.95;27.00;;;;;;;2.77;100.00;101191.69;5041688;28;20029;-59
2023/02/05 06:41:09;;;;;;;87.18;29.25;;;;;;;2.85;100.00;101196.25;5033786;28;20369;-59
2023/02/05 06:43:35;;;;;;;84.60;27.05;;;;;;;2.83;100.00;101194.72;5044687;28;20025;-59
2023/02/05 06:46:00;;;;;;;99.82;29.17;;;;;;;2.77;100.00;101201.41;5073982;28;20039;-59
2023/02/05 06:48:26;;;;;;;104.40;28.75;;;;;;;2.94;100.00;101191.88;5039041;28;20033;-59
2023/02/05 06:50:51;;;;;;;112.78;33.38;;;;;;;3.04;100.00;101182.09;5040892;28;20052;-60
2023/02/05 06:53:16;;;;;;;115.30;31.98;;;;;;;3.06;100.00;101176.66;5046287;28;20044;-60
2023/02/05 06:55:42;;;;;;;98.57;26.10;;;;;;;3.22;100.00;101175.06;5041448;28;20029;-59
2023/02/05 06:58:08;;;;;;;93.93;28.15;;;;;;;3.16;100.00;101167.69;5045867;28;20032;-59
2023/02/05 07:00:34;;;;;;;108.72;27.45;;;;;;;3.18;100.00;101165.72;5046694;28;20040;-60
2023/02/05 07:02:59;;;;;;;111.20;30.75;;;;;;;3.18;100.00;101173.66;5040418;28;20036;-60
2023/02/05 07:05:24;;;;;;;111.88;30.58;;;;;;;3.22;100.00;101155.66;5038733;28;20025;-61
2023/02/05 07:07:50;;;;;;;99.28;28.58;;;;;;;3.30;100.00;101157.59;5049371;28;20491;-61
2023/02/05 07:10:15;;;;;;;101.13;27.75;;;;;;;3.37;100.00;101158.63;5048188;28;20430;-61
2023/02/05 07:12:41;;;;;;;101.45;25.77;;;;;;;3.39;100.00;101152.19;5045253;28;20020;-61
2023/02/05 07:15:06;;;;;;;88.80;25.45;;;;;;;3.46;100.00;101163.88;5048883;28;20029;-60
2023/02/05 07:17:32;;;;;;;67.53;22.38;;;;;;;3.60;100.00;101165.22;5045277;28;20094;-61
2023/02/05 07:19:58;;;;;;;76.68;21.85;;;;;;;3.61;100.00;101155.44;5040324;28;20029;-60
2023/02/05 07:22:23;;;;;;;78.72;23.40;;;;;;;3.61;100.00;101166.88;5043483;28;20025;-60
2023/02/05 07:24:49;;;;;;;76.28;23.30;;;;;;;3.62;100.00;101159.72;5042160;28;20748;-60
2023/02/05 07:27:14;;;;;;;77.88;22.92;;;;;;;3.64;100.00;101155.13;5039502;28;20040;-60
2023/02/05 07:29:40;;;;;;;71.97;21.77;;;;;;;3.67;100.00;101157.50;5048540;28;20068;-60
2023/02/05 07:32:05;;;;;;;74.75;22.77;;;;;;;3.74;100.00;101150.56;5042021;28;20106;-60
2023/02/05 07:34:30;;;;;;;61.50;19.90;;;;;;;3.78;100.00;101146.66;5052216;28;20483;-59
2023/02/05 07:36:56;;;;;;;55.65;19.98;;;;;;;3.82;100.00;101141.88;5039708;28;20030;-62
2023/02/05 07:39:21;;;;;;;68.50;22.88;;;;;;;3.80;100.00;101159.78;5043080;28;20055;-60
2023/02/05 07:41:47;;;;;;;83.43;25.20;;;;;;;3.73;100.00;101153.41;5042289;28;20017;-60
2023/02/05 07:44:12;;;;;;;72.25;26.33;;;;;;;3.68;100.00;101159.97;5042244;28;20459;-60
2023/02/05 07:46:38;;;;;;;88.25;27.83;;;;;;;3.66;100.00;101169.91;5036145;28;20026;-60
2023/02/05 07:49:03;;;;;;;82.57;25.55;;;;;;;3.53;100.00;101164.13;5038202;28;20033;-60
2023/02/05 07:51:29;;;;;;;71.82;24.70;;;;;;;3.51;100.00;101160.78;5050606;28;20382;-60
2023/02/05 07:53:54;;;;;;;70.45;25.52;;;;;;;3.48;100.00;101161.09;5043450;28;20032;-60
2023/02/05 07:56:24;;;;;;;70.72;20.92;;;;;;;3.66;100.00;101153.16;5045378;28;20029;-60
2023/02/05 07:58:50;;;;;;;50.27;17.67;;;;;;;3.82;100.00;101141.88;5040746;28;20170;-59
2023/02/05 08:01:15;;;;;;;64.03;18.48;;;;;;;3.89;100.00;101137.63;5042684;28;20674;-60
2023/02/05 08:03:41;;;;;;;52.40;19.98;;;;;;;4.11;100.00;101141.63;5035969;28;20021;-59
2023/02/05 08:06:07;;;;;;;55.72;19.60;;;;;;;4.10;100.00;101143.47;5046342;28;20420;-60
2023/02/05 08:08:32;;;;;;;50.20;18.15;;;;;;;4.08;100.00;101140.13;5039006;28;20064;-60
2023/02/05 08:11:02;;;;;;;50.45;17.38;;;;;;;4.06;100.00;101139.44;5039428;28;20056;-60
2023/02/05 08:13:28;;;;;;;57.25;19.85;;;;;;;4.08;100.00;101136.63;5039323;28;20056;-60
2023/02/05 08:15:53;;;;;;;69.90;24.85;;;;;;;4.10;100.00;101134.66;5043215;28;20056;-60
2023/02/05 08:18:19;;;;;;;57.45;20.20;;;;;;;4.17;100.00;101134.88;5054601;28;20634;-60
2023/02/05 08:20:44;;;;;;;60.95;19.45;;;;;;;4.19;100.00;101132.91;5047021;28;20148;-60
2023/02/05 08:23:10;;;;;;;60.78;22.45;;;;;;;4.23;100.00;101134.28;5047586;28;20490;-60
2023/02/05 08:25:35;;;;;;;67.53;26.52;;;;;;;4.26;100.00;101132.13;5043840;28;20021;-59
2023/02/05 08:28:01;;;;;;;80.07;30.60;;;;;;;4.35;100.00;101130.38;5043451;28;20033;-60
2023/02/05 08:30:26;;;;;;;67.75;28.60;;;;;;;4.43;100.00;101122.47;5043144;28;20037;-60
2023/02/05 08:32:52;;;;;;;57.90;21.83;;;;;;;4.54;100.00;101131.97;5043208;28;20016;-60
2023/02/05 08:35:17;;;;;;;53.35;20.15;;;;;;;4.59;100.00;101129.69;5043527;28;20148;-60
2023/02/05 08:37:43;;;;;;;47.08;17.98;;;;;;;4.64;100.00;101124.75;5024821;28;20037;-60
2023/02/05 08:40:09;;;;;;;82.40;29.67;;;;;;;4.72;100.00;101124.81;5038474;28;20021;-60
2023/02/05 08:42:34;;;;;;;57.17;24.45;;;;;;;4.74;100.00;101130.78;5036038;28;20025;-62
2023/02/05 08:45:00;;;;;;;49.95;21.02;;;;;;;4.85;100.00;101129.69;5039817;28;20028;-60
2023/02/05 08:47:26;;;;;;;42.50;18.40;;;;;;;4.94;100.00;101134.06;5041323;28;20245;-60
2023/02/05 08:49:52;;;;;;;41.45;16.55;;;;;;;4.98;100.00;101138.03;5042199;28;20028;-60
2023/02/05 08:52:20;;;;;;;41.92;17.65;;;;;;;5.07;100.00;101128.28;5041745;28;20091;-60
2023/02/05 08:54:47;;;;;;;38.35;15.32;;;;;;;5.28;100.00;101125.19;5045094;28;20022;-60
2023/02/05 08:57:12;;;;;;;45.60;16.75;;;;;;;5.28;100.00;101117.22;5041624;28;20028;-60
2023/02/05 08:59:37;;;;;;;42.88;15.68;;;;;;;5.43;100.00;101117.44;5031230;28;20033;-59
2023/02/05 09:02:03;;;;;;;46.95;17.13;;;;;;;5.43;100.00;101114.75;5038402;28;20032;-59
2023/02/05 09:04:29;;;;;;;43.03;15.80;;;;;;;5.38;100.00;101119.75;5045496;28;20028;-59
2023/02/05 09:06:55;;;;;;;44.17;16.10;;;;;;;5.36;100.00;101125.22;5040865;28;20029;-59
2023/02/05 09:09:20;;;;;;;42.92;16.08;;;;;;;5.34;100.00;101129.88;5043090;28;20049;-61
2023/02/05 09:11:46;;;;;;;50.33;17.83;;;;;;;5.29;100.00;101121.56;5039956;28;20036;-61
2023/02/05 09:14:11;;;;;;;45.05;19.08;;;;;;;5.22;100.00;101120.53;5040091;28;20103;-59
2023/02/05 09:16:37;;;;;;;54.88;18.95;;;;;;;5.26;100.00;101110.41;5038617;28;20413;-61
2023/02/05 09:19:02;;;;;;;52.35;20.55;;;;;;;5.28;100.00;101111.91;5030571;28;20091;-60
2023/02/05 09:21:28;;;;;;;49.00;18.45;;;;;;;5.27;100.00;101101.44;5037147;28;20033;-61
2023/02/05 09:23:53;;;;;;;44.15;20.70;;;;;;;5.19;100.00;101102.22;5046331;28;20495;-60
2023/02/05 09:26:19;;;;;;;44.55;20.88;;;;;;;5.18;100.00;101101.41;5039623;28;20135;-60
2023/02/05 09:28:45;;;;;;;36.40;14.77;;;;;;;5.18;100.00;101097.91;5031995;28;20053;-58
2023/02/05 09:31:14;;;;;;;46.05;15.48;;;;;;;5.25;100.00;101098.09;5034410;28;20384;-59
2023/02/05 09:33:40;;;;;;;48.78;14.98;;;;;;;5.19;100.00;101095.09;5044123;28;20032;-59
2023/02/05 09:36:06;;;;;;;37.85;15.73;;;;;;;5.18;100.00;101092.59;5045084;28;20029;-61
2023/02/05 09:38:31;;;;;;;35.80;14.13;;;;;;;5.32;100.00;101099.13;5040995;28;20041;-59
2023/02/05 09:41:49;;;;;;;38.65;14.82;;;;;;;5.33;100.00;101092.81;5039224;28;20028;-59
2023/02/05 09:44:40;;;;;;;32.70;13.50;;;;;;;5.27;100.00;101088.97;5017787;28;20479;-61
2023/02/05 09:47:34;;;;;;;33.08;13.30;;;;;;;5.22;100.00;101083.31;5029933;28;20083;-59
2023/02/05 09:50:09;;;;;;;38.95;13.40;;;;;;;5.42;100.00;101089.19;5044036;28;20071;-58
2023/02/05 09:52:38;;;;;;;31.60;11.93;;;;;;;5.26;100.00;101089.13;5046847;28;20475;-58
2023/02/05 09:55:21;;;;;;;35.22;14.15;;;;;;;5.25;100.00;101093.63;5036881;28;20515;-59
2023/02/05 09:57:47;;;;;;;49.22;18.17;;;;;;;5.25;100.00;101104.25;5031851;28;20029;-58
2023/02/05 10:00:19;;;;;;;49.60;18.67;;;;;;;5.31;100.00;101100.09;5037175;28;20590;-59
2023/02/05 10:03:07;;;;;;;90.90;34.90;;;;;;;5.26;100.00;101100.59;5071467;28;20425;-59
2023/02/05 10:05:38;;;;;;;51.67;20.02;;;;;;;5.21;100.00;101092.25;5047240;28;20024;-59
2023/02/05 10:08:11;;;;;;;79.88;29.02;;;;;;;5.22;100.00;101088.63;5014553;28;20384;-59
2023/02/05 10:10:43;;;;;;;52.28;20.42;;;;;;;5.12;100.00;101093.25;5031172;28;20327;-60
2023/02/05 10:13:24;;;;;;;76.20;28.25;;;;;;;4.97;100.00;101085.88;5040484;28;20513;-58
2023/02/05 10:15:56;;;;;;;76.68;28.02;;;;;;;4.97;100.00;101085.06;5044941;28;20511;-60
2023/02/05 10:18:36;;;;;;;57.13;20.95;;;;;;;4.99;100.00;101077.75;5040162;28;20587;-60
2023/02/05 10:21:40;;;;;;;200.55;65.78;;;;;;;5.03;100.00;101080.91;5081720;28;20577;-60
2023/02/05 10:24:27;;;;;;;35.95;16.48;;;;;;;5.00;100.00;101083.91;5040433;28;20045;-60
2023/02/05 10:26:59;;;;;;;33.33;19.60;;;;;;;4.80;100.00;101073.53;5051470;28;20040;-60
2023/02/05 10:29:43;;;;;;;21.45;12.57;;;;;;;4.56;100.00;101086.69;5043454;28;20037;-60
2023/02/05 10:32:08;;;;;;;19.65;11.50;;;;;;;4.54;100.00;101087.69;5052414;28;20044;-60
2023/02/05 10:34:55;;;;;;;17.17;8.10;;;;;;;4.49;100.00;101081.16;5045166;28;20078;-60
2023/02/05 10:37:28;;;;;;;18.25;9.57;;;;;;;4.47;100.00;101085.81;5041086;28;20044;-60
2023/02/05 10:39:54;;;;;;;21.25;12.18;;;;;;;4.50;100.00;101078.38;5040877;28;20029;-59
2023/02/05 10:42:40;;;;;;;21.73;11.57;;;;;;;4.53;100.00;101085.19;5047051;28;20232;-60
2023/02/05 10:45:15;;;;;;;20.23;10.82;;;;;;;4.52;100.00;101081.69;5044389;28;20029;-59
2023/02/05 10:48:01;;;;;;;19.30;10.13;;;;;;;4.52;100.00;101091.50;5045710;28;20032;-59
2023/02/05 10:50:35;;;;;;;19.60;11.27;;;;;;;4.54;100.00;101085.03;5041465;28;20075;-61
2023/02/05 10:53:01;;;;;;;22.52;13.30;;;;;;;4.38;100.00;101090.22;5036010;28;20347;-61
2023/02/05 10:55:28;;;;;;;18.70;10.57;;;;;;;4.33;100.00;101103.97;5043563;28;20052;-61
2023/02/05 10:57:54;;;;;;;23.25;9.65;;;;;;;4.26;100.00;101099.44;5022148;28;20029;-61
2023/02/05 11:00:21;;;;;;;16.50;10.43;;;;;;;4.29;100.00;101099.97;5043799;28;20047;-59
2023/02/05 11:02:57;;;;;;;27.42;11.85;;;;;;;4.27;100.00;101095.81;5050034;28;20036;-61
2023/02/05 11:05:36;;;;;;;18.38;10.18;;;;;;;4.27;100.00;101095.81;5038860;28;20032;-59
2023/02/05 11:08:02;;;;;;;25.42;10.40;;;;;;;4.31;100.00;101097.16;5040199;28;20037;-60
2023/02/05 11:10:29;;;;;;;20.42;10.73;;;;;;;4.49;100.00;101091.78;5049675;28;20460;-59
2023/02/05 11:12:56;;;;;;;20.38;11.52;;;;;;;4.63;100.00;101093.03;5074000;28;20072;-60
2023/02/05 11:15:23;;;;;;;19.38;8.52;;;;;;;4.64;100.00;101086.72;5028234;28;20033;-59
2023/02/05 11:17:52;;;;;;;18.65;10.68;;;;;;;4.85;100.00;101081.03;5043792;28;20442;-59